createdAt,value
2023-03-04T00:00:12.627Z,31.67
2023-03-04T00:00:46.467Z,31.13
2023-03-04T00:01:18.073Z,28.00
2023-03-04T00:01:50.667Z,29.52
2023-03-04T00:02:22.455Z,28.80
2023-03-04T00:02:54.168Z,34.50
2023-03-04T00:03:25.847Z,30.45
2023-03-04T00:03:57.493Z,37.60
2023-03-04T00:04:29.070Z,37.30
2023-03-04T00:05:00.698Z,39.72
2023-03-04T00:05:32.792Z,35.83
2023-03-04T00:06:05.250Z,34.47
2023-03-04T00:06:36.810Z,31.15
2023-03-04T00:07:08.552Z,34.75
2023-03-04T00:07:40.184Z,32.88
2023-03-04T00:08:11.875Z,33.70
2023-03-04T00:08:43.528Z,37.75
2023-03-04T00:09:15.140Z,36.05
2023-03-04T00:09:47.247Z,34.58
2023-03-04T00:10:19.064Z,34.25
2023-03-04T00:10:50.705Z,31.05
2023-03-04T00:11:22.360Z,37.03
2023-03-04T00:11:54.073Z,33.00
2023-03-04T00:12:25.682Z,38.17
2023-03-04T00:12:57.301Z,36.22
2023-03-04T00:13:28.981Z,33.47
2023-03-04T00:14:00.904Z,36.03
2023-03-04T00:14:32.461Z,32.70
2023-03-04T00:15:04.308Z,32.92
2023-03-04T00:15:35.868Z,35.83
2023-03-04T00:16:07.983Z,34.97
2023-03-04T00:16:39.652Z,36.30
2023-03-04T00:17:11.377Z,38.45
2023-03-04T00:17:43.026Z,34.47
2023-03-04T00:18:14.623Z,35.00
2023-03-04T00:18:46.204Z,32.50
2023-03-04T00:19:17.826Z,34.70
2023-03-04T00:19:49.462Z,35.47
2023-03-04T00:20:21.134Z,33.17
2023-03-04T00:20:52.724Z,28.15
2023-03-04T00:21:24.900Z,29.27
2023-03-04T00:21:56.746Z,31.92
2023-03-04T00:22:28.334Z,27.73
2023-03-04T00:22:59.947Z,29.35
2023-03-04T00:23:31.647Z,27.70
2023-03-04T00:24:03.488Z,31.23
2023-03-04T00:24:35.331Z,29.33
2023-03-04T00:25:07.484Z,28.98
2023-03-04T00:25:39.126Z,29.70
2023-03-04T00:26:10.825Z,30.67
2023-03-04T00:26:42.518Z,30.13
2023-03-04T00:27:14.128Z,30.90
2023-03-04T00:27:45.791Z,32.88
2023-03-04T00:28:17.459Z,32.25
2023-03-04T00:28:49.059Z,32.95
2023-03-04T00:29:22.886Z,29.60
2023-03-04T00:29:54.498Z,29.85
2023-03-04T00:30:26.140Z,28.48
2023-03-04T00:30:58.015Z,28.02
2023-03-04T00:31:29.625Z,28.85
2023-03-04T00:32:01.342Z,30.33
2023-03-04T00:32:33.258Z,28.13
2023-03-04T00:33:04.879Z,28.98
2023-03-04T00:33:36.887Z,30.25
2023-03-04T00:34:08.552Z,29.75
2023-03-04T00:34:40.784Z,29.10
2023-03-04T00:35:12.476Z,28.30
2023-03-04T00:35:44.219Z,28.52
2023-03-04T00:36:15.883Z,30.13
2023-03-04T00:36:47.595Z,27.63
2023-03-04T00:37:19.190Z,30.25
2023-03-04T00:37:51.045Z,26.45
2023-03-04T00:38:22.750Z,29.48
2023-03-04T00:38:54.397Z,25.05
2023-03-04T00:39:25.981Z,29.02
2023-03-04T00:39:57.593Z,29.45
2023-03-04T00:40:29.200Z,27.50
2023-03-04T00:41:00.883Z,25.70
2023-03-04T00:41:32.520Z,27.00
2023-03-04T00:42:04.194Z,31.15
2023-03-04T00:42:35.849Z,29.45
2023-03-04T00:43:07.532Z,28.92
2023-03-04T00:43:39.312Z,29.75
2023-03-04T00:44:10.931Z,31.38
2023-03-04T00:44:42.660Z,24.70
2023-03-04T00:45:14.338Z,28.40
2023-03-04T00:45:46.015Z,27.00
2023-03-04T00:46:17.711Z,27.25
2023-03-04T00:46:49.347Z,31.52
2023-03-04T00:47:20.939Z,26.85
2023-03-04T00:47:52.551Z,28.85
2023-03-04T00:48:24.284Z,32.78
2023-03-04T00:48:55.860Z,30.60
2023-03-04T00:49:27.563Z,31.77
2023-03-04T00:49:59.166Z,30.85
2023-03-04T00:50:30.904Z,29.48
2023-03-04T00:51:02.508Z,28.52
2023-03-04T00:51:34.393Z,31.30
2023-03-04T00:52:06.158Z,28.75
2023-03-04T00:52:37.841Z,29.13
2023-03-04T00:53:10.099Z,28.70
2023-03-04T00:53:41.678Z,26.15
2023-03-04T00:54:13.365Z,28.70
2023-03-04T00:54:44.966Z,28.17
2023-03-04T00:55:16.602Z,26.83
2023-03-04T00:55:48.221Z,27.63
2023-03-04T00:56:19.857Z,30.60
2023-03-04T00:56:51.490Z,29.52
2023-03-04T00:57:23.164Z,29.52
2023-03-04T00:57:54.860Z,29.13
2023-03-04T00:58:26.554Z,27.40
2023-03-04T00:58:58.225Z,26.25
2023-03-04T00:59:29.857Z,29.70
2023-03-04T01:00:01.411Z,30.42
2023-03-04T01:00:33.093Z,26.42
2023-03-04T01:01:04.968Z,26.30
2023-03-04T01:01:36.663Z,26.13
2023-03-04T01:02:08.344Z,27.13
2023-03-04T01:02:39.962Z,25.27
2023-03-04T01:03:11.647Z,31.75
2023-03-04T01:03:43.306Z,28.77
2023-03-04T01:04:14.908Z,28.48
2023-03-04T01:04:46.528Z,28.80
2023-03-04T01:05:18.211Z,25.48
2023-03-04T01:05:49.758Z,25.73
2023-03-04T01:06:21.529Z,24.35
2023-03-04T01:06:53.184Z,24.67
2023-03-04T01:07:24.734Z,30.40
2023-03-04T01:07:56.326Z,22.17
2023-03-04T01:08:27.998Z,23.65
2023-03-04T01:08:59.592Z,26.48
2023-03-04T01:09:31.554Z,27.75
2023-03-04T01:10:03.237Z,25.60
2023-03-04T01:10:34.813Z,26.50
2023-03-04T01:11:07.081Z,28.55
2023-03-04T01:11:38.757Z,26.95
2023-03-04T01:12:10.340Z,26.52
2023-03-04T01:12:42.526Z,27.08
2023-03-04T01:13:14.365Z,25.23
2023-03-04T01:13:46.327Z,25.08
2023-03-04T01:14:18.049Z,25.92
2023-03-04T01:14:49.745Z,25.45
2023-03-04T01:15:21.393Z,29.15
2023-03-04T01:15:53.123Z,27.13
2023-03-04T01:16:24.842Z,29.98
2023-03-04T01:16:56.537Z,27.80
2023-03-04T01:17:28.140Z,26.60
2023-03-04T01:17:59.729Z,26.77
2023-03-04T01:18:31.447Z,26.20
2023-03-04T01:19:03.067Z,25.15
2023-03-04T01:19:34.621Z,24.90
2023-03-04T01:20:10.393Z,29.48
2023-03-04T01:20:42.057Z,25.85
2023-03-04T01:21:14.124Z,29.42
2023-03-04T01:21:45.763Z,26.05
2023-03-04T01:22:19.189Z,25.98
2023-03-04T01:22:50.764Z,29.17
2023-03-04T01:23:22.501Z,26.45
2023-03-04T01:23:54.115Z,25.83
2023-03-04T01:24:25.775Z,26.83
2023-03-04T01:24:57.470Z,25.33
2023-03-04T01:25:29.050Z,33.13
2023-03-04T01:26:00.752Z,26.75
2023-03-04T01:26:32.396Z,31.67
2023-03-04T01:27:04.152Z,29.02
2023-03-04T01:27:35.792Z,25.30
2023-03-04T01:28:07.394Z,28.15
2023-03-04T01:28:39.025Z,24.05
2023-03-04T01:29:10.856Z,23.52
2023-03-04T01:29:42.515Z,23.85
2023-03-04T01:30:14.268Z,24.17
2023-03-04T01:30:46.010Z,26.58
2023-03-04T01:31:17.742Z,25.52
2023-03-04T01:31:49.422Z,25.08
2023-03-04T01:32:21.241Z,25.15
2023-03-04T01:32:52.944Z,27.63
2023-03-04T01:33:24.566Z,28.27
2023-03-04T01:33:56.193Z,26.48
2023-03-04T01:34:27.805Z,24.42
2023-03-04T01:34:59.453Z,27.30
2023-03-04T01:35:31.236Z,24.60
2023-03-04T01:36:02.872Z,27.52
2023-03-04T01:36:34.488Z,26.38
2023-03-04T01:37:06.130Z,26.85
2023-03-04T01:37:37.790Z,26.75
2023-03-04T01:38:09.449Z,25.77
2023-03-04T01:38:41.091Z,24.80
2023-03-04T01:39:12.711Z,25.02
2023-03-04T01:39:44.390Z,23.55
2023-03-04T01:40:16.051Z,26.17
2023-03-04T01:40:49.314Z,27.10
2023-03-04T01:41:25.455Z,26.35
2023-03-04T01:41:57.021Z,29.83
2023-03-04T01:42:31.015Z,27.55
2023-03-04T01:43:02.849Z,23.73
2023-03-04T01:43:36.106Z,26.98
2023-03-04T01:44:09.892Z,26.77
2023-03-04T01:44:41.617Z,27.23
2023-03-04T01:45:17.776Z,26.55
2023-03-04T01:45:50.611Z,27.50
2023-03-04T01:46:22.440Z,26.30
2023-03-04T01:46:55.255Z,30.50
2023-03-04T01:47:29.373Z,28.42
2023-03-04T01:48:01.034Z,28.70
2023-03-04T01:48:37.378Z,28.02
2023-03-04T01:49:10.392Z,25.50
2023-03-04T01:49:42.158Z,23.50
2023-03-04T01:50:18.157Z,26.40
2023-03-04T01:50:49.713Z,25.48
2023-03-04T01:51:21.865Z,25.55
2023-03-04T01:51:54.651Z,25.20
2023-03-04T01:52:27.640Z,25.85
2023-03-04T01:52:59.619Z,27.00
2023-03-04T01:53:32.291Z,26.67
2023-03-04T01:54:03.942Z,26.40
2023-03-04T01:54:35.583Z,26.30
2023-03-04T01:55:15.934Z,27.25
2023-03-04T01:55:48.295Z,30.55
2023-03-04T01:56:24.005Z,25.65
2023-03-04T01:56:55.598Z,25.33
2023-03-04T01:57:27.322Z,28.05
2023-03-04T01:57:58.947Z,26.88
2023-03-04T01:58:32.154Z,25.10
2023-03-04T01:59:09.595Z,27.77
2023-03-04T01:59:41.499Z,23.10
2023-03-04T02:00:15.866Z,26.30
2023-03-04T02:00:47.540Z,28.40
2023-03-04T02:01:19.185Z,22.38
2023-03-04T02:01:53.917Z,23.70
2023-03-04T02:02:25.594Z,29.15
2023-03-04T02:03:09.141Z,29.40
2023-03-04T02:03:40.850Z,23.90
2023-03-04T02:04:12.938Z,25.60
2023-03-04T02:04:44.758Z,24.42
2023-03-04T02:05:16.456Z,22.83
2023-03-04T02:05:50.460Z,22.08
2023-03-04T02:06:22.066Z,22.23
2023-03-04T02:06:54.095Z,21.67
2023-03-04T02:07:25.800Z,21.40
2023-03-04T02:07:58.233Z,25.05
2023-03-04T02:08:29.955Z,24.65
2023-03-04T02:09:01.584Z,26.23
2023-03-04T02:09:34.231Z,24.98
2023-03-04T02:10:06.272Z,24.08
2023-03-04T02:10:38.728Z,26.13
2023-03-04T02:11:10.327Z,25.05
2023-03-04T02:11:42.768Z,25.17
2023-03-04T02:12:14.395Z,23.30
2023-03-04T02:12:46.145Z,22.20
2023-03-04T02:13:18.257Z,22.27
2023-03-04T02:13:49.962Z,22.13
2023-03-04T02:14:22.383Z,20.77
2023-03-04T02:14:54.920Z,25.23
2023-03-04T02:15:26.510Z,22.67
2023-03-04T02:15:58.200Z,23.70
2023-03-04T02:16:29.818Z,21.45
2023-03-04T02:17:01.466Z,20.98
2023-03-04T02:17:33.594Z,21.92
2023-03-04T02:18:20.901Z,23.10
2023-03-04T02:18:52.574Z,19.98
2023-03-04T02:19:26.767Z,20.33
2023-03-04T02:20:33.044Z,19.40
2023-03-04T02:21:13.049Z,19.65
2023-03-04T02:21:44.603Z,17.73
2023-03-04T02:22:16.254Z,21.17
2023-03-04T02:22:57.664Z,23.30
2023-03-04T02:23:47.372Z,22.83
2023-03-04T02:24:49.303Z,22.10
2023-03-04T02:25:25.929Z,23.70
2023-03-04T02:26:13.761Z,25.50
2023-03-04T02:26:46.999Z,24.98
2023-03-04T02:27:21.007Z,24.73
2023-03-04T02:27:53.549Z,23.90
2023-03-04T02:28:25.159Z,19.92
2023-03-04T02:28:58.397Z,28.75
2023-03-04T02:29:30.006Z,29.42
2023-03-04T02:30:01.680Z,27.40
2023-03-04T02:30:33.294Z,22.00
2023-03-04T02:31:05.084Z,23.33
2023-03-04T02:31:39.544Z,26.58
2023-03-04T02:32:12.834Z,26.00
2023-03-04T02:32:44.523Z,23.63
2023-03-04T02:33:18.040Z,24.05
2023-03-04T02:33:50.650Z,25.02
2023-03-04T02:34:29.382Z,23.10
2023-03-04T02:35:01.025Z,19.35
2023-03-04T02:35:32.849Z,24.35
2023-03-04T02:36:04.646Z,24.63
2023-03-04T02:36:36.555Z,20.67
2023-03-04T02:37:10.911Z,19.58
2023-03-04T02:37:42.565Z,17.33
2023-03-04T02:38:14.227Z,17.85
2023-03-04T02:38:45.913Z,20.27
2023-03-04T02:39:20.161Z,19.77
2023-03-04T02:39:51.884Z,21.05
2023-03-04T02:40:26.620Z,20.45
2023-03-04T02:40:58.500Z,19.27
2023-03-04T02:41:30.587Z,21.52
2023-03-04T02:42:03.808Z,19.98
2023-03-04T02:42:35.456Z,22.40
2023-03-04T02:43:07.184Z,24.05
2023-03-04T02:43:38.853Z,20.80
2023-03-04T02:44:22.399Z,22.55
2023-03-04T02:45:01.244Z,24.33
2023-03-04T02:45:37.195Z,20.83
2023-03-04T02:46:12.095Z,22.58
2023-03-04T02:46:43.919Z,22.85
2023-03-04T02:47:20.538Z,20.80
2023-03-04T02:47:52.198Z,21.10
2023-03-04T02:48:26.758Z,22.88
2023-03-04T02:48:58.335Z,20.65
2023-03-04T02:49:31.182Z,21.67
2023-03-04T02:50:02.817Z,21.92
2023-03-04T02:50:39.172Z,19.25
2023-03-04T02:51:11.125Z,20.42
2023-03-04T02:51:42.751Z,21.40
2023-03-04T02:52:18.302Z,22.42
2023-03-04T02:52:49.897Z,21.95
2023-03-04T02:53:22.441Z,20.02
2023-03-04T02:53:53.994Z,21.20
2023-03-04T02:54:25.592Z,21.25
2023-03-04T02:54:57.269Z,23.95
2023-03-04T02:55:29.692Z,21.80
2023-03-04T02:56:01.322Z,22.02
2023-03-04T02:56:33.042Z,19.52
2023-03-04T02:57:08.003Z,22.15
2023-03-04T02:57:39.597Z,18.52
2023-03-04T02:58:11.957Z,20.73
2023-03-04T02:58:43.550Z,21.63
2023-03-04T02:59:15.277Z,21.98
2023-03-04T02:59:46.950Z,21.73
2023-03-04T03:00:18.727Z,23.45
2023-03-04T03:00:50.369Z,22.52
2023-03-04T03:01:22.108Z,18.45
2023-03-04T03:01:53.920Z,22.67
2023-03-04T03:02:27.132Z,20.80
2023-03-04T03:02:58.993Z,21.27
2023-03-04T03:03:30.668Z,21.08
2023-03-04T03:04:02.336Z,21.08
2023-03-04T03:04:35.120Z,21.42
2023-03-04T03:05:06.965Z,21.58
2023-03-04T03:05:39.398Z,20.20
2023-03-04T03:06:11.085Z,23.02
2023-03-04T03:06:42.703Z,20.65
2023-03-04T03:07:14.384Z,21.52
2023-03-04T03:07:46.112Z,22.10
2023-03-04T03:08:17.702Z,20.73
2023-03-04T03:08:49.316Z,21.08
2023-03-04T03:09:21.459Z,20.27
2023-03-04T03:09:53.022Z,20.30
2023-03-04T03:10:24.797Z,19.92
2023-03-04T03:10:56.489Z,21.27
2023-03-04T03:11:28.090Z,22.77
2023-03-04T03:11:59.787Z,19.45
2023-03-04T03:12:31.421Z,20.20
2023-03-04T03:13:03.321Z,23.40
2023-03-04T03:13:34.969Z,23.27
2023-03-04T03:14:06.633Z,21.13
2023-03-04T03:14:38.265Z,22.55
2023-03-04T03:15:10.286Z,23.92
2023-03-04T03:15:42.540Z,26.30
2023-03-04T03:16:14.198Z,22.13
2023-03-04T03:16:45.885Z,23.10
2023-03-04T03:17:17.529Z,24.50
2023-03-04T03:17:49.250Z,22.33
2023-03-04T03:18:20.917Z,22.10
2023-03-04T03:18:52.593Z,23.90
2023-03-04T03:19:24.175Z,22.63
2023-03-04T03:19:56.671Z,26.33
2023-03-04T03:20:28.212Z,25.25
2023-03-04T03:20:59.795Z,22.08
2023-03-04T03:21:31.459Z,24.73
2023-03-04T03:22:03.175Z,24.80
2023-03-04T03:22:34.762Z,21.27
2023-03-04T03:23:06.325Z,25.40
2023-03-04T03:23:37.901Z,20.92
2023-03-04T03:24:09.493Z,22.90
2023-03-04T03:24:41.146Z,22.65
2023-03-04T03:25:14.244Z,21.33
2023-03-04T03:25:45.793Z,21.25
2023-03-04T03:26:18.366Z,24.80
2023-03-04T03:26:49.992Z,24.55
2023-03-04T03:27:21.622Z,23.25
2023-03-04T03:27:53.244Z,22.02
2023-03-04T03:28:24.836Z,26.55
2023-03-04T03:28:56.442Z,24.27
2023-03-04T03:29:28.007Z,25.15
2023-03-04T03:29:59.634Z,26.65
2023-03-04T03:30:31.358Z,21.75
2023-03-04T03:31:03.027Z,25.23
2023-03-04T03:31:34.790Z,26.30
2023-03-04T03:32:06.576Z,24.13
2023-03-04T03:32:38.282Z,23.45
2023-03-04T03:33:09.956Z,26.33
2023-03-04T03:33:41.581Z,25.08
2023-03-04T03:34:13.241Z,22.90
2023-03-04T03:34:44.870Z,28.73
2023-03-04T03:35:16.495Z,22.27
2023-03-04T03:35:48.297Z,25.13
2023-03-04T03:36:20.107Z,23.73
2023-03-04T03:36:51.744Z,23.27
2023-03-04T03:37:23.642Z,24.70
2023-03-04T03:37:55.268Z,26.25
2023-03-04T03:38:27.650Z,21.85
2023-03-04T03:38:59.262Z,25.45
2023-03-04T03:39:30.851Z,26.35
2023-03-04T03:40:02.817Z,25.70
2023-03-04T03:40:34.509Z,27.20
2023-03-04T03:41:06.108Z,27.83
2023-03-04T03:41:37.674Z,27.98
2023-03-04T03:42:09.301Z,27.27
2023-03-04T03:42:41.027Z,29.33
2023-03-04T03:43:12.603Z,30.50
2023-03-04T03:43:44.152Z,28.90
2023-03-04T03:44:16.103Z,28.58
2023-03-04T03:44:47.844Z,30.60
2023-03-04T03:45:19.422Z,26.65
2023-03-04T03:45:52.164Z,28.13
2023-03-04T03:46:23.891Z,29.83
2023-03-04T03:46:55.528Z,28.63
2023-03-04T03:47:27.431Z,28.55
2023-03-04T03:47:59.015Z,28.13
2023-03-04T03:48:30.609Z,26.45
2023-03-04T03:49:02.170Z,26.73
2023-03-04T03:49:33.758Z,25.15
2023-03-04T03:50:05.956Z,23.83
2023-03-04T03:50:37.657Z,26.00
2023-03-04T03:51:09.595Z,25.30
2023-03-04T03:51:41.282Z,30.33
2023-03-04T03:52:13.053Z,23.83
2023-03-04T03:52:44.631Z,26.27
2023-03-04T03:53:16.226Z,22.67
2023-03-04T03:53:47.841Z,23.90
2023-03-04T03:54:19.575Z,25.15
2023-03-04T03:54:51.251Z,24.33
2023-03-04T03:55:23.274Z,24.13
2023-03-04T03:55:54.924Z,30.05
2023-03-04T03:56:26.508Z,28.00
2023-03-04T03:56:58.192Z,29.92
2023-03-04T03:57:30.166Z,26.73
2023-03-04T03:58:01.736Z,26.60
2023-03-04T03:58:33.369Z,30.80
2023-03-04T03:59:05.002Z,27.95
2023-03-04T03:59:36.623Z,28.38
2023-03-04T04:00:10.355Z,30.60
2023-03-04T04:00:41.924Z,29.58
2023-03-04T04:01:13.480Z,28.02
2023-03-04T04:01:45.203Z,27.40
2023-03-04T04:02:16.918Z,27.48
2023-03-04T04:02:48.662Z,29.20
2023-03-04T04:03:20.761Z,28.98
2023-03-04T04:03:53.177Z,29.23
2023-03-04T04:04:24.841Z,31.40
2023-03-04T04:04:56.529Z,26.95
2023-03-04T04:05:28.174Z,30.02
2023-03-04T04:05:59.842Z,28.67
2023-03-04T04:06:31.467Z,29.90
2023-03-04T04:07:03.220Z,27.25
2023-03-04T04:07:34.938Z,30.98
2023-03-04T04:08:06.621Z,29.88
2023-03-04T04:08:38.437Z,34.55
2023-03-04T04:09:10.029Z,36.75
2023-03-04T04:09:41.681Z,31.00
2023-03-04T04:10:13.248Z,33.05
2023-03-04T04:10:45.043Z,40.63
2023-03-04T04:11:16.714Z,32.15
2023-03-04T04:11:48.440Z,41.88
2023-03-04T04:12:20.457Z,40.67
2023-03-04T04:12:52.078Z,38.92
2023-03-04T04:13:23.793Z,39.28
2023-03-04T04:13:55.433Z,43.47
2023-03-04T04:14:27.012Z,41.72
2023-03-04T04:14:58.681Z,43.28
2023-03-04T04:15:30.270Z,45.35
2023-03-04T04:16:01.908Z,51.03
2023-03-04T04:16:33.702Z,43.85
2023-03-04T04:17:05.433Z,42.08
2023-03-04T04:17:37.058Z,48.47
2023-03-04T04:18:09.037Z,43.88
2023-03-04T04:18:40.654Z,48.80
2023-03-04T04:19:17.995Z,42.95
2023-03-04T04:19:49.606Z,52.17
2023-03-04T04:20:21.260Z,48.88
2023-03-04T04:20:53.754Z,46.67
2023-03-04T04:21:25.355Z,41.60
2023-03-04T04:21:56.913Z,45.15
2023-03-04T04:22:28.486Z,39.83
2023-03-04T04:23:00.070Z,35.25
2023-03-04T04:23:31.893Z,36.67
2023-03-04T04:24:03.569Z,35.78
2023-03-04T04:24:36.048Z,31.10
2023-03-04T04:25:10.655Z,26.60
2023-03-04T04:25:42.302Z,24.02
2023-03-04T04:26:13.916Z,30.70
2023-03-04T04:26:45.524Z,31.02
2023-03-04T04:27:17.136Z,29.45
2023-03-04T04:27:48.705Z,24.85
2023-03-04T04:28:20.359Z,23.67
2023-03-04T04:28:52.017Z,22.10
2023-03-04T04:29:23.642Z,23.95
2023-03-04T04:29:55.324Z,21.90
2023-03-04T04:30:26.965Z,22.92
2023-03-04T04:30:58.627Z,22.55
2023-03-04T04:31:30.243Z,22.40
2023-03-04T04:32:01.939Z,24.70
2023-03-04T04:32:33.642Z,23.65
2023-03-04T04:33:05.293Z,21.52
2023-03-04T04:33:36.897Z,20.80
2023-03-04T04:34:09.033Z,22.60
2023-03-04T04:34:40.717Z,22.55
2023-03-04T04:35:12.477Z,17.95
2023-03-04T04:35:44.155Z,18.85
2023-03-04T04:36:20.856Z,18.85
2023-03-04T04:36:53.066Z,18.83
2023-03-04T04:37:24.634Z,17.52
2023-03-04T04:37:56.715Z,21.25
2023-03-04T04:38:28.441Z,20.17
2023-03-04T04:39:00.190Z,19.55
2023-03-04T04:39:31.895Z,21.15
2023-03-04T04:40:04.381Z,22.80
2023-03-04T04:40:36.529Z,23.60
2023-03-04T04:41:19.256Z,19.98
2023-03-04T04:41:50.884Z,18.35
2023-03-04T04:42:22.773Z,20.33
2023-03-04T04:42:54.367Z,23.77
2023-03-04T04:43:26.125Z,21.40
2023-03-04T04:43:57.743Z,21.17
2023-03-04T04:44:29.371Z,21.77
2023-03-04T04:45:01.136Z,22.15
2023-03-04T04:45:32.792Z,20.60
2023-03-04T04:46:04.556Z,17.67
2023-03-04T04:46:36.896Z,22.75
2023-03-04T04:47:09.947Z,23.00
2023-03-04T04:47:41.656Z,24.48
2023-03-04T04:48:13.296Z,21.88
2023-03-04T04:48:45.036Z,22.60
2023-03-04T04:49:16.634Z,22.73
2023-03-04T04:49:48.242Z,23.60
2023-03-04T04:50:20.026Z,23.67
2023-03-04T04:50:56.340Z,25.70
2023-03-04T04:51:28.375Z,20.75
2023-03-04T04:52:00.055Z,25.23
2023-03-04T04:52:31.660Z,28.15
2023-03-04T04:53:03.421Z,26.05
2023-03-04T04:53:35.226Z,26.83
2023-03-04T04:54:07.624Z,28.95
2023-03-04T04:54:39.227Z,24.85
2023-03-04T04:55:11.121Z,23.90
2023-03-04T04:55:42.798Z,25.38
2023-03-04T04:56:16.813Z,26.88
2023-03-04T04:56:48.585Z,29.13
2023-03-04T04:57:20.214Z,30.02
2023-03-04T04:57:51.880Z,29.65
2023-03-04T04:58:23.780Z,30.27
2023-03-04T04:58:57.784Z,29.17
2023-03-04T04:59:29.383Z,31.20
2023-03-04T05:00:01.049Z,31.35
2023-03-04T05:00:32.608Z,26.05
2023-03-04T05:01:05.039Z,25.75
2023-03-04T05:01:36.729Z,24.25
2023-03-04T05:02:08.378Z,21.65
2023-03-04T05:02:39.939Z,22.13
2023-03-04T05:03:11.567Z,25.67
2023-03-04T05:03:43.412Z,24.65
2023-03-04T05:04:15.089Z,27.55
2023-03-04T05:04:46.705Z,25.10
2023-03-04T05:05:18.313Z,24.52
2023-03-04T05:05:49.907Z,24.75
2023-03-04T05:06:23.856Z,23.30
2023-03-04T05:06:55.456Z,27.52
2023-03-04T05:07:27.008Z,27.48
2023-03-04T05:07:58.853Z,26.33
2023-03-04T05:08:30.506Z,25.25
2023-03-04T05:09:02.382Z,29.02
2023-03-04T05:09:34.088Z,29.00
2023-03-04T05:10:05.996Z,27.48
2023-03-04T05:10:38.192Z,32.00
2023-03-04T05:11:09.811Z,28.17
2023-03-04T05:11:41.457Z,26.20
2023-03-04T05:12:13.215Z,31.95
2023-03-04T05:12:45.295Z,29.80
2023-03-04T05:13:17.014Z,28.38
2023-03-04T05:13:49.497Z,27.83
2023-03-04T05:14:21.053Z,26.50
2023-03-04T05:14:52.673Z,29.40
2023-03-04T05:15:25.097Z,27.92
2023-03-04T05:15:56.989Z,29.45
2023-03-04T05:16:28.632Z,28.25
2023-03-04T05:17:00.321Z,29.45
2023-03-04T05:17:31.895Z,33.08
2023-03-04T05:18:03.545Z,31.42
2023-03-04T05:18:35.192Z,28.08
2023-03-04T05:19:07.037Z,31.80
2023-03-04T05:19:38.657Z,27.85
2023-03-04T05:20:11.079Z,27.05
2023-03-04T05:20:42.702Z,28.13
2023-03-04T05:21:14.597Z,29.02
2023-03-04T05:21:46.236Z,28.27
2023-03-04T05:22:17.876Z,29.75
2023-03-04T05:22:49.559Z,27.08
2023-03-04T05:23:21.253Z,26.67
2023-03-04T05:23:52.872Z,31.65
2023-03-04T05:24:24.549Z,27.17
2023-03-04T05:24:57.301Z,29.52
2023-03-04T05:25:29.110Z,27.92
2023-03-04T05:26:01.333Z,25.90
2023-03-04T05:26:33.297Z,28.65
2023-03-04T05:27:04.899Z,27.20
2023-03-04T05:27:36.516Z,27.30
2023-03-04T05:28:12.562Z,29.52
2023-03-04T05:28:44.949Z,28.73
2023-03-04T05:29:16.600Z,23.55
2023-03-04T05:29:48.137Z,29.02
2023-03-04T05:30:19.831Z,31.08
2023-03-04T05:30:51.516Z,26.98
2023-03-04T05:31:23.275Z,27.50
2023-03-04T05:31:54.927Z,28.05
2023-03-04T05:32:26.960Z,24.70
2023-03-04T05:32:58.612Z,25.65
2023-03-04T05:33:30.599Z,27.55
2023-03-04T05:34:02.283Z,27.63
2023-03-04T05:34:33.892Z,26.60
2023-03-04T05:35:06.520Z,28.92
2023-03-04T05:35:39.112Z,27.98
2023-03-04T05:36:10.834Z,25.92
2023-03-04T05:36:42.444Z,28.52
2023-03-04T05:37:14.076Z,26.80
2023-03-04T05:37:45.684Z,27.90
2023-03-04T05:38:19.589Z,27.80
2023-03-04T05:38:51.405Z,29.70
2023-03-04T05:39:22.998Z,27.48
2023-03-04T05:39:54.624Z,29.92
2023-03-04T05:40:26.261Z,29.08
2023-03-04T05:40:59.542Z,31.95
2023-03-04T05:41:31.206Z,31.63
2023-03-04T05:42:02.758Z,29.23
2023-03-04T05:42:34.373Z,30.40
2023-03-04T05:43:06.168Z,32.42
2023-03-04T05:43:42.915Z,33.65
2023-03-04T05:44:14.727Z,26.58
2023-03-04T05:44:46.366Z,30.05
2023-03-04T05:45:18.112Z,30.17
2023-03-04T05:45:50.031Z,31.38
2023-03-04T05:46:25.694Z,31.52
2023-03-04T05:46:57.473Z,30.75
2023-03-04T05:47:29.009Z,27.85
2023-03-04T05:48:00.712Z,28.33
2023-03-04T05:48:32.376Z,32.80
2023-03-04T05:49:04.139Z,30.88
2023-03-04T05:49:35.785Z,27.23
2023-03-04T05:50:07.827Z,30.55
2023-03-04T05:50:39.461Z,34.40
2023-03-04T05:51:11.382Z,31.33
2023-03-04T05:51:43.031Z,27.50
2023-03-04T05:52:14.657Z,30.25
2023-03-04T05:52:46.431Z,28.75
2023-03-04T05:53:17.967Z,28.75
2023-03-04T05:53:49.951Z,31.52
2023-03-04T05:54:21.857Z,34.67
2023-03-04T05:54:53.511Z,29.33
2023-03-04T05:55:25.316Z,29.90
2023-03-04T05:55:56.998Z,33.53
2023-03-04T05:56:30.155Z,30.02
2023-03-04T05:57:02.551Z,29.27
2023-03-04T05:57:34.164Z,32.08
2023-03-04T05:58:05.699Z,29.90
2023-03-04T05:58:37.473Z,31.35
2023-03-04T05:59:09.069Z,30.42
2023-03-04T05:59:40.620Z,31.80
2023-03-04T06:00:13.457Z,33.95
2023-03-04T06:00:45.688Z,29.85
2023-03-04T06:01:17.714Z,30.05
2023-03-04T06:01:49.484Z,35.95
2023-03-04T06:02:21.059Z,31.73
2023-03-04T06:02:52.784Z,31.23
2023-03-04T06:03:25.388Z,34.83
2023-03-04T06:03:57.220Z,30.65
2023-03-04T06:04:28.836Z,30.45
2023-03-04T06:05:00.632Z,31.83
2023-03-04T06:05:32.271Z,33.13
2023-03-04T06:06:04.260Z,28.85
2023-03-04T06:06:35.929Z,31.52
2023-03-04T06:07:07.596Z,32.28
2023-03-04T06:07:39.216Z,30.40
2023-03-04T06:08:12.004Z,29.42
2023-03-04T06:08:43.724Z,31.17
2023-03-04T06:09:15.334Z,34.90
2023-03-04T06:09:46.877Z,31.35
2023-03-04T06:10:18.784Z,33.88
2023-03-04T06:10:53.435Z,32.63
2023-03-04T06:11:25.068Z,27.33
2023-03-04T06:11:56.638Z,29.65
2023-03-04T06:12:28.936Z,37.35
2023-03-04T06:13:00.506Z,35.42
2023-03-04T06:13:32.504Z,32.00
2023-03-04T06:14:04.109Z,32.25
2023-03-04T06:14:35.734Z,31.50
2023-03-04T06:15:10.169Z,33.03
2023-03-04T06:15:41.871Z,35.17
2023-03-04T06:16:13.535Z,33.25
2023-03-04T06:16:45.180Z,35.03
2023-03-04T06:17:16.948Z,34.17
2023-03-04T06:17:48.536Z,31.77
2023-03-04T06:18:20.210Z,32.53
2023-03-04T06:18:51.830Z,37.20
2023-03-04T06:19:23.530Z,39.42
2023-03-04T06:19:55.143Z,33.92
2023-03-04T06:20:26.803Z,34.17
2023-03-04T06:20:59.929Z,37.05
2023-03-04T06:21:31.602Z,33.47
2023-03-04T06:22:03.251Z,36.00
2023-03-04T06:22:35.680Z,36.80
2023-03-04T06:23:07.363Z,32.33
2023-03-04T06:23:38.991Z,33.33
2023-03-04T06:24:10.583Z,33.88
2023-03-04T06:24:42.167Z,35.97
2023-03-04T06:25:13.725Z,34.35
2023-03-04T06:25:45.337Z,32.70
2023-03-04T06:26:16.992Z,31.42
2023-03-04T06:26:48.639Z,35.65
2023-03-04T06:27:20.271Z,35.47
2023-03-04T06:27:53.009Z,37.47
2023-03-04T06:28:25.848Z,34.72
2023-03-04T06:28:57.584Z,32.50
2023-03-04T06:29:29.215Z,35.83
2023-03-04T06:30:01.834Z,36.50
2023-03-04T06:30:34.075Z,35.00
2023-03-04T06:31:05.799Z,35.13
2023-03-04T06:31:38.346Z,39.00
2023-03-04T06:32:10.025Z,33.67
2023-03-04T06:32:44.405Z,33.55
2023-03-04T06:33:16.041Z,29.13
2023-03-04T06:33:47.670Z,35.22
2023-03-04T06:34:19.411Z,34.22
2023-03-04T06:34:51.118Z,33.65
2023-03-04T06:35:22.878Z,36.40
2023-03-04T06:35:55.906Z,36.78
2023-03-04T06:36:27.502Z,37.53
2023-03-04T06:36:59.259Z,32.10
2023-03-04T06:37:30.871Z,32.80
2023-03-04T06:38:02.426Z,33.88
2023-03-04T06:38:34.083Z,33.40
2023-03-04T06:39:06.394Z,37.00
2023-03-04T06:39:38.011Z,36.70
2023-03-04T06:40:11.006Z,33.85
2023-03-04T06:40:42.683Z,36.53
2023-03-04T06:41:14.548Z,34.72
2023-03-04T06:41:46.270Z,33.92
2023-03-04T06:42:17.952Z,32.75
2023-03-04T06:42:49.492Z,32.85
2023-03-04T06:43:21.278Z,34.28
2023-03-04T06:43:55.862Z,30.10
2023-03-04T06:44:27.521Z,32.63
2023-03-04T06:44:59.123Z,31.92
2023-03-04T06:45:30.794Z,30.52
2023-03-04T06:46:02.377Z,30.48
2023-03-04T06:46:35.192Z,32.20
2023-03-04T06:47:07.497Z,31.58
2023-03-04T06:47:39.141Z,43.97
2023-03-04T06:48:10.839Z,30.50
2023-03-04T06:48:42.457Z,29.90
2023-03-04T06:49:14.094Z,31.38
2023-03-04T06:49:45.798Z,32.25
2023-03-04T06:50:17.475Z,30.70
2023-03-04T06:50:49.123Z,36.75
2023-03-04T06:51:20.843Z,33.75
2023-03-04T06:51:53.156Z,34.30
2023-03-04T06:52:24.820Z,33.85
2023-03-04T06:52:57.475Z,36.08
2023-03-04T06:53:29.123Z,33.28
2023-03-04T06:54:00.688Z,34.30
2023-03-04T06:54:32.285Z,30.40
2023-03-04T06:55:04.257Z,30.95